createdAt,value
2019-03-25T00:00:46.241Z,58.00
2019-03-25T00:03:19.498Z,57.80
2019-03-25T00:05:48.086Z,57.50
2019-03-25T00:08:16.656Z,57.80
2019-03-25T00:10:45.691Z,57.30
2019-03-25T00:13:14.344Z,58.00
2019-03-25T00:15:43.206Z,57.90
2019-03-25T00:18:11.776Z,58.30
2019-03-25T00:20:40.371Z,59.70
2019-03-25T00:23:08.931Z,59.40
2019-03-25T00:25:37.993Z,59.60
2019-03-25T00:28:07.191Z,60.10
2019-03-25T00:30:35.744Z,60.00
2019-03-25T00:33:09.526Z,60.00
2019-03-25T00:35:38.046Z,60.30
2019-03-25T00:38:14.723Z,60.20
2019-03-25T00:40:45.546Z,59.50
2019-03-25T00:43:16.358Z,59.30
2019-03-25T00:45:44.636Z,59.50
2019-03-25T00:48:13.195Z,59.80
2019-03-25T00:50:41.776Z,60.30
2019-03-25T00:53:11.374Z,60.40
2019-03-25T00:55:39.936Z,60.60
2019-03-25T00:58:08.506Z,60.70
2019-03-25T01:00:41.552Z,61.00
2019-03-25T01:03:08.950Z,61.20
2019-03-25T01:05:38.912Z,62.00
2019-03-25T01:08:13.284Z,62.30
2019-03-25T01:10:41.886Z,62.60
2019-03-25T01:13:12.239Z,62.90
2019-03-25T01:15:41.932Z,63.10
2019-03-25T01:18:16.926Z,63.20
2019-03-25T01:20:41.774Z,63.70
2019-03-25T01:23:10.341Z,64.20
2019-03-25T01:25:38.926Z,64.50
2019-03-25T01:28:07.574Z,65.00
2019-03-25T01:30:55.568Z,65.20
2019-03-25T01:33:24.178Z,65.50
2019-03-25T01:35:52.765Z,65.70
2019-03-25T01:38:21.380Z,66.00
2019-03-25T01:40:49.958Z,66.20
2019-03-25T01:43:20.719Z,66.90
2019-03-25T01:49:21.162Z,67.80
2019-03-25T01:51:51.271Z,68.30
2019-03-25T01:54:19.954Z,69.20
2019-03-25T01:56:48.514Z,69.50
2019-03-25T01:59:17.133Z,70.10
2019-03-25T02:01:45.710Z,70.70
2019-03-25T02:04:14.278Z,70.60
2019-03-25T02:06:44.435Z,70.90
2019-03-25T02:09:16.202Z,71.10
2019-03-25T02:11:45.429Z,71.00
2019-03-25T02:14:13.995Z,71.20
2019-03-25T02:16:42.661Z,71.50
2019-03-25T02:19:13.653Z,72.70
2019-03-25T02:21:42.141Z,72.10
2019-03-25T02:24:11.048Z,72.60
2019-03-25T02:26:45.269Z,72.90
2019-03-25T02:29:13.832Z,72.80
2019-03-25T02:31:44.201Z,73.50
2019-03-25T02:34:14.078Z,73.40
2019-03-25T02:36:42.667Z,72.90
2019-03-25T02:39:20.327Z,73.00
2019-03-25T02:41:50.474Z,72.90
2019-03-25T02:44:22.117Z,72.60
2019-03-25T02:46:50.620Z,72.60
2019-03-25T02:49:20.771Z,72.80
2019-03-25T02:51:52.036Z,73.10
2019-03-25T02:54:21.951Z,72.90
2019-03-25T02:56:50.511Z,73.30
2019-03-25T02:59:19.094Z,72.90
2019-03-25T03:01:47.636Z,73.20
2019-03-25T03:04:19.148Z,73.30
2019-03-25T03:06:47.703Z,74.00
2019-03-25T03:09:16.277Z,74.10
2019-03-25T03:11:44.841Z,74.20
2019-03-25T03:14:15.383Z,73.30
2019-03-25T03:16:43.748Z,74.20
2019-03-25T03:19:14.822Z,74.30
2019-03-25T03:21:53.360Z,74.50
2019-03-25T03:24:27.136Z,74.60
2019-03-25T03:26:58.212Z,74.40
2019-03-25T03:29:28.637Z,74.40
2019-03-25T03:32:02.958Z,74.70
2019-03-25T03:34:33.379Z,74.80
2019-03-25T03:37:04.923Z,74.70
2019-03-25T03:39:35.534Z,74.90
2019-03-25T03:42:06.193Z,74.80
2019-03-25T03:44:36.460Z,75.50
2019-03-25T03:47:10.286Z,75.80
2019-03-25T03:49:44.219Z,77.20
2019-03-25T03:52:29.917Z,76.40
2019-03-25T03:55:00.461Z,76.30
2019-03-25T03:57:29.432Z,76.60
2019-03-25T03:59:59.713Z,77.10
2019-03-25T04:02:35.407Z,77.50
2019-03-25T04:05:05.557Z,77.80
2019-03-25T04:07:34.183Z,77.80
2019-03-25T04:10:02.831Z,77.60
2019-03-25T04:12:31.398Z,78.00
2019-03-25T04:15:01.221Z,78.30
2019-03-25T04:17:37.555Z,78.50
2019-03-25T04:20:08.154Z,78.50
2019-03-25T04:22:38.703Z,78.80
2019-03-25T04:25:44.456Z,78.50
2019-03-25T04:28:15.162Z,78.50
2019-03-25T04:30:46.477Z,78.50
2019-03-25T04:33:15.910Z,78.50
2019-03-25T04:35:51.175Z,78.40
2019-03-25T04:38:28.474Z,78.00
2019-03-25T04:41:01.260Z,77.70
2019-03-25T04:43:30.176Z,77.40
2019-03-25T04:46:03.175Z,77.70
2019-03-25T04:48:34.604Z,77.90
2019-03-25T04:51:06.583Z,78.30
2019-03-25T04:53:37.732Z,78.30
2019-03-25T04:56:06.289Z,78.40
2019-03-25T04:58:35.890Z,78.40
2019-03-25T05:01:04.610Z,78.60
2019-03-25T05:03:33.175Z,79.50
2019-03-25T05:06:02.394Z,79.40
2019-03-25T05:08:30.952Z,79.20
2019-03-25T05:10:59.510Z,79.10
2019-03-25T05:13:31.207Z,78.90
2019-03-25T05:16:03.032Z,78.90
2019-03-25T05:18:31.869Z,78.60
2019-03-25T05:21:00.401Z,78.00
2019-03-25T05:23:29.280Z,77.70
2019-03-25T05:26:00.972Z,77.30
2019-03-25T05:28:34.699Z,76.70
2019-03-25T05:31:13.839Z,76.70
2019-03-25T05:33:45.709Z,77.50
2019-03-25T05:36:15.838Z,77.70
2019-03-25T05:38:51.680Z,78.60
2019-03-25T05:41:25.709Z,79.40
2019-03-25T05:43:56.542Z,79.90
2019-03-25T05:46:30.407Z,79.70
2019-03-25T05:48:58.972Z,79.40
2019-03-25T05:51:37.356Z,79.20
2019-03-25T05:54:08.616Z,79.70
2019-03-25T05:56:43.414Z,79.40
2019-03-25T05:59:22.936Z,78.00
2019-03-25T06:02:05.176Z,76.90
2019-03-25T06:04:36.349Z,76.20
2019-03-25T06:07:07.312Z,75.20
2019-03-25T06:09:35.854Z,73.70
2019-03-25T06:12:04.412Z,73.40
2019-03-25T06:14:36.912Z,72.80
2019-03-25T06:17:09.062Z,72.20
2019-03-25T06:19:39.538Z,71.20
2019-03-25T06:22:22.901Z,70.60
2019-03-25T06:24:57.113Z,68.80
2019-03-25T06:27:25.842Z,70.80
2019-03-25T06:29:54.447Z,71.20
2019-03-25T06:32:22.998Z,72.40
2019-03-25T06:34:51.592Z,73.30
2019-03-25T06:37:21.582Z,72.90
2019-03-25T06:39:50.954Z,72.80
2019-03-25T06:42:21.210Z,73.20
2019-03-25T06:44:50.590Z,72.00
2019-03-25T06:47:22.692Z,72.00
2019-03-25T06:49:52.678Z,70.60
2019-03-25T06:52:22.452Z,70.90
2019-03-25T06:54:53.753Z,70.00
2019-03-25T06:57:26.746Z,68.90
2019-03-25T07:00:00.912Z,69.30
2019-03-25T07:02:34.850Z,68.20
2019-03-25T07:05:04.994Z,66.80
2019-03-25T07:07:35.166Z,65.50
2019-03-25T07:10:07.587Z,64.00
2019-03-25T07:12:38.200Z,64.00
2019-03-25T07:15:11.800Z,64.50
2019-03-25T07:17:47.149Z,63.70
2019-03-25T07:20:17.680Z,63.50
2019-03-25T07:22:47.191Z,62.90
2019-03-25T07:25:17.565Z,62.60
2019-03-25T07:27:49.480Z,61.90
2019-03-25T07:30:19.617Z,62.10
2019-03-25T07:32:49.710Z,60.90
2019-03-25T07:35:22.343Z,60.10
2019-03-25T07:37:55.063Z,58.20
2019-03-25T07:40:25.640Z,59.60
2019-03-25T07:42:57.242Z,59.20
2019-03-25T07:45:27.601Z,58.60
2019-03-25T07:48:00.332Z,58.90
2019-03-25T07:50:34.445Z,58.80
2019-03-25T07:53:03.055Z,59.30
2019-03-25T07:55:31.674Z,60.00
2019-03-25T07:58:02.451Z,60.10
2019-03-25T08:00:33.121Z,61.40
2019-03-25T08:03:01.678Z,61.30
2019-03-25T08:05:30.282Z,60.80
2019-03-25T08:08:02.326Z,60.10
2019-03-25T08:10:35.041Z,59.10
2019-03-25T08:13:11.532Z,58.10
2019-03-25T08:15:39.743Z,57.00
2019-03-25T08:18:09.811Z,56.00
2019-03-25T08:20:42.965Z,55.70
2019-03-25T08:23:13.799Z,55.80
2019-03-25T08:25:45.850Z,55.60
2019-03-25T08:28:14.494Z,55.40
2019-03-25T08:30:44.607Z,55.00
2019-03-25T08:33:13.707Z,55.30
2019-03-25T08:35:45.371Z,55.10
2019-03-25T08:38:17.173Z,54.90
2019-03-25T08:40:46.283Z,54.20
2019-03-25T08:43:18.403Z,53.60
2019-03-25T08:45:53.624Z,53.00
2019-03-25T08:48:30.873Z,53.10
2019-03-25T08:51:09.119Z,52.40
2019-03-25T08:53:48.333Z,52.80
2019-03-25T08:56:15.791Z,53.20
2019-03-25T08:58:47.377Z,53.60
2019-03-25T09:01:31.524Z,52.70
2019-03-25T09:03:48.517Z,53.40
2019-03-25T09:06:30.763Z,53.80
2019-03-25T09:09:08.381Z,54.50
2019-03-25T09:11:36.830Z,55.40
2019-03-25T09:14:12.985Z,55.70
2019-03-25T09:16:54.979Z,56.00
2019-03-25T09:19:26.084Z,55.80
2019-03-25T09:22:02.225Z,55.40
2019-03-25T09:24:35.261Z,54.50
2019-03-25T09:27:09.491Z,53.70
2019-03-25T09:29:42.947Z,53.30
2019-03-25T09:32:16.435Z,52.90
2019-03-25T09:34:54.107Z,53.90
2019-03-25T09:37:26.035Z,55.40
2019-03-25T09:40:14.557Z,54.80
2019-03-25T09:42:49.501Z,54.30
2019-03-25T09:45:24.513Z,55.20
2019-03-25T09:47:53.965Z,54.30
2019-03-25T09:50:29.355Z,55.00
2019-03-25T09:52:58.371Z,55.00
2019-03-25T09:55:28.220Z,54.60
2019-03-25T09:57:59.409Z,53.60
2019-03-25T10:00:33.579Z,53.10
2019-03-25T10:03:08.100Z,53.30
2019-03-25T10:05:39.776Z,52.80
2019-03-25T10:08:08.977Z,53.20
2019-03-25T10:10:40.403Z,52.20
2019-03-25T10:13:18.457Z,52.40
2019-03-25T10:15:49.047Z,52.30
2019-03-25T10:18:21.016Z,51.40
2019-03-25T10:20:55.143Z,51.60
2019-03-25T10:23:28.407Z,51.50
2019-03-25T10:25:56.671Z,51.20
2019-03-25T10:28:26.435Z,50.90
2019-03-25T10:30:54.972Z,50.50
2019-03-25T10:33:25.236Z,50.40
2019-03-25T10:35:55.322Z,50.10
2019-03-25T10:38:26.074Z,49.90
2019-03-25T10:40:57.034Z,50.30
2019-03-25T10:43:29.256Z,52.50
2019-03-25T10:45:57.813Z,51.80
2019-03-25T10:48:26.416Z,51.60
2019-03-25T10:50:55.054Z,51.30
2019-03-25T10:53:34.023Z,51.80
2019-03-25T10:56:00.235Z,51.70
2019-03-25T10:58:32.289Z,51.50
2019-03-25T11:01:04.082Z,51.80
2019-03-25T11:03:34.657Z,52.50
2019-03-25T11:06:03.259Z,52.50
2019-03-25T11:08:34.415Z,52.30
2019-03-25T11:11:03.594Z,53.00
2019-03-25T11:13:35.151Z,52.80
2019-03-25T11:16:05.247Z,53.10
2019-03-25T11:18:33.884Z,53.40
2019-03-25T11:21:03.679Z,52.90
2019-03-25T11:23:38.729Z,53.60
2019-03-25T11:26:08.653Z,53.10
2019-03-25T11:28:39.096Z,53.20
2019-03-25T11:31:07.733Z,52.60
2019-03-25T11:33:36.907Z,52.90
2019-03-25T11:36:06.106Z,52.50
2019-03-25T11:38:34.735Z,52.00
2019-03-25T11:41:03.379Z,51.40
2019-03-25T11:43:32.016Z,51.70
2019-03-25T11:46:05.073Z,50.90
2019-03-25T11:48:33.884Z,50.70
2019-03-25T11:51:02.449Z,50.80
2019-03-25T11:53:34.366Z,50.60
2019-03-25T11:56:02.662Z,50.50
2019-03-25T11:58:31.217Z,50.00
2019-03-25T12:00:59.819Z,49.00
2019-03-25T12:03:29.953Z,47.90
2019-03-25T12:05:58.583Z,48.80
2019-03-25T12:08:27.217Z,49.50
2019-03-25T12:10:55.883Z,49.60
2019-03-25T12:13:24.444Z,48.90
2019-03-25T12:15:53.167Z,48.50
2019-03-25T12:18:21.755Z,48.30
2019-03-25T12:20:50.303Z,49.50
2019-03-25T12:23:25.916Z,50.30
2019-03-25T12:25:49.162Z,50.90
2019-03-25T12:28:19.575Z,51.80
2019-03-25T12:30:48.055Z,53.30
2019-03-25T12:33:16.619Z,54.60
2019-03-25T12:35:45.199Z,55.30
2019-03-25T12:38:13.755Z,56.10
2019-03-25T12:40:42.395Z,56.00
2019-03-25T12:43:10.978Z,55.20
2019-03-25T12:45:39.638Z,55.10
2019-03-25T12:48:09.687Z,55.20
2019-03-25T12:50:38.987Z,55.00
2019-03-25T12:53:07.640Z,54.80
2019-03-25T12:55:36.282Z,55.00
2019-03-25T12:58:07.274Z,55.80
2019-03-25T13:00:40.756Z,55.40
2019-03-25T13:03:12.279Z,55.60
2019-03-25T13:05:40.927Z,54.90
2019-03-25T13:08:09.567Z,54.50
2019-03-25T13:10:39.533Z,55.40
2019-03-25T13:13:08.587Z,56.30
2019-03-25T13:15:39.374Z,57.30
2019-03-25T13:18:07.968Z,57.40
2019-03-25T13:20:36.588Z,57.80
2019-03-25T13:23:23.474Z,57.70
2019-03-25T13:25:43.167Z,57.60
2019-03-25T13:28:11.789Z,57.40
2019-03-25T13:30:40.446Z,57.30
2019-03-25T13:33:11.413Z,57.50
2019-03-25T13:35:40.051Z,57.40
2019-03-25T13:38:08.698Z,57.00
2019-03-25T13:40:38.802Z,57.50
2019-03-25T13:43:09.965Z,56.70
2019-03-25T13:45:40.871Z,56.80
2019-03-25T13:48:13.256Z,55.20
2019-03-25T13:50:46.942Z,52.30
2019-03-25T13:53:16.257Z,53.20
2019-03-25T13:55:46.628Z,53.80
2019-03-25T13:58:23.889Z,53.90
2019-03-25T14:00:54.152Z,53.70
2019-03-25T14:03:25.927Z,53.40
2019-03-25T14:05:54.486Z,53.70
2019-03-25T14:08:24.815Z,53.60
2019-03-25T14:10:53.461Z,53.10
2019-03-25T14:13:26.364Z,53.10
2019-03-25T14:15:59.080Z,51.70
2019-03-25T14:18:27.691Z,50.70
2019-03-25T14:20:56.932Z,50.70
2019-03-25T14:23:30.644Z,51.00
2019-03-25T14:26:00.524Z,51.60
2019-03-25T14:28:31.090Z,51.50
2019-03-25T14:31:01.121Z,52.40
2019-03-25T14:33:36.424Z,51.30
2019-03-25T14:36:10.729Z,52.10
2019-03-25T14:38:43.774Z,55.10
2019-03-25T14:41:15.679Z,59.50
2019-03-25T14:43:44.824Z,67.30
2019-03-25T14:46:15.410Z,73.10
2019-03-25T14:48:46.558Z,76.70
2019-03-25T14:51:19.179Z,79.80
2019-03-25T14:53:51.029Z,81.60
2019-03-25T14:56:23.332Z,83.00
2019-03-25T14:58:54.868Z,86.10
2019-03-25T15:01:24.002Z,87.40
2019-03-25T15:03:55.884Z,88.50
2019-03-25T15:06:24.640Z,90.20
2019-03-25T15:08:56.084Z,90.60
2019-03-25T15:11:26.204Z,91.40
2019-03-25T15:13:57.456Z,91.40
2019-03-25T15:16:29.249Z,91.90
2019-03-25T15:19:00.181Z,92.50
2019-03-25T15:21:35.942Z,91.80
2019-03-25T15:24:03.444Z,91.70
2019-03-25T15:26:39.277Z,91.20
2019-03-25T15:29:12.245Z,90.90
2019-03-25T15:31:43.813Z,90.80
2019-03-25T15:34:14.523Z,90.70
2019-03-25T15:36:52.120Z,91.00
2019-03-25T15:39:19.278Z,90.90
2019-03-25T15:41:55.244Z,91.60
2019-03-25T15:50:47.321Z,91.50
2019-03-25T15:59:14.335Z,90.90
2019-03-25T16:02:22.669Z,90.10
2019-03-25T16:04:54.317Z,90.10
2019-03-25T16:07:25.735Z,90.40
2019-03-25T16:10:03.628Z,90.00
2019-03-25T16:12:32.395Z,90.20
2019-03-25T16:15:07.172Z,90.60
2019-03-25T16:17:43.338Z,89.50
2019-03-25T16:23:11.200Z,88.10
2019-03-25T16:25:41.873Z,86.40
2019-03-25T16:28:12.429Z,88.10
2019-03-25T16:30:45.887Z,87.10
2019-03-25T16:33:16.631Z,85.70
2019-03-25T16:38:41.884Z,85.70
2019-03-25T16:44:05.078Z,83.20
2019-03-25T16:46:42.712Z,82.20
2019-03-25T16:49:22.094Z,82.20
2019-03-25T16:51:56.705Z,80.20
2019-03-25T16:54:36.529Z,81.50
2019-03-25T16:57:08.459Z,81.00
2019-03-25T16:59:41.738Z,82.00
2019-03-25T17:09:31.411Z,84.40
2019-03-25T17:12:16.811Z,85.40
2019-03-25T17:14:53.687Z,85.90
2019-03-25T17:18:00.904Z,86.30
2019-03-25T17:20:38.418Z,85.50
2019-03-25T17:23:08.895Z,85.50
2019-03-25T17:25:56.369Z,86.50
2019-03-25T17:28:27.416Z,85.70
2019-03-25T17:30:56.187Z,85.50
2019-03-25T17:33:24.883Z,84.80
2019-03-25T17:35:55.014Z,85.50
2019-03-25T17:38:27.959Z,85.40
2019-03-25T17:40:57.930Z,85.70
2019-03-25T17:43:26.614Z,85.90
2019-03-25T17:45:55.250Z,86.30
2019-03-25T17:48:30.755Z,86.70
2019-03-25T17:51:02.029Z,86.60
2019-03-25T17:53:31.147Z,87.60
2019-03-25T17:56:03.176Z,87.70
2019-03-25T17:58:35.029Z,88.60
2019-03-25T18:01:10.108Z,89.30
2019-03-25T18:03:38.689Z,90.00
2019-03-25T18:06:08.432Z,90.20
2019-03-25T18:08:36.979Z,91.00
2019-03-25T18:11:08.796Z,91.70
2019-03-25T18:13:37.659Z,92.40
2019-03-25T18:16:13.007Z,92.50
2019-03-25T18:18:52.079Z,89.90
2019-03-25T18:21:22.165Z,90.20
2019-03-25T18:23:54.888Z,89.60
2019-03-25T18:26:23.823Z,84.30
2019-03-25T18:28:55.693Z,86.20
2019-03-25T18:31:26.471Z,85.00
2019-03-25T18:33:56.074Z,86.10
2019-03-25T18:36:24.641Z,86.40
2019-03-25T18:38:53.302Z,87.00
2019-03-25T18:41:25.469Z,87.40
2019-03-25T18:43:59.936Z,88.40
2019-03-25T18:46:28.896Z,88.70
2019-03-25T18:49:10.461Z,88.50
2019-03-25T18:51:48.006Z,89.30
2019-03-25T18:54:14.244Z,89.60
2019-03-25T18:56:47.637Z,90.10
2019-03-25T18:59:17.173Z,90.40
2019-03-25T19:01:54.491Z,90.60
2019-03-25T19:07:20.866Z,91.10
2019-03-25T19:09:51.281Z,91.20
2019-03-25T19:12:28.526Z,91.60
2019-03-25T19:15:10.550Z,91.80
2019-03-25T19:17:39.560Z,92.00
2019-03-25T19:20:10.276Z,92.30
2019-03-25T19:22:40.691Z,92.50
2019-03-25T19:25:11.002Z,92.90
2019-03-25T19:27:43.765Z,93.00
2019-03-25T19:30:16.866Z,92.90
2019-03-25T19:32:56.697Z,93.00
2019-03-25T19:35:34.072Z,93.10
2019-03-25T19:38:13.962Z,93.00
2019-03-25T19:40:48.661Z,93.10
2019-03-25T19:43:28.129Z,93.60
2019-03-25T19:46:07.476Z,93.60
2019-03-25T19:48:39.947Z,93.80
2019-03-25T19:51:09.090Z,93.80
2019-03-25T19:53:42.202Z,93.80
2019-03-25T19:56:19.622Z,93.60
2019-03-25T19:58:48.238Z,93.50
2019-03-25T20:01:35.613Z,93.60
2019-03-25T20:04:04.266Z,93.70
2019-03-25T20:06:33.040Z,93.70
2019-03-25T20:09:01.738Z,93.70
2019-03-25T20:11:30.322Z,93.60
2019-03-25T20:13:58.898Z,93.50
2019-03-25T20:16:27.599Z,93.70
2019-03-25T20:18:57.265Z,93.70
2019-03-25T20:21:25.901Z,93.60
2019-03-25T20:23:54.557Z,93.50
2019-03-25T20:26:24.005Z,93.40
2019-03-25T20:28:52.694Z,93.30
2019-03-25T20:31:21.643Z,93.40
2019-03-25T20:33:50.264Z,93.60
2019-03-25T20:36:18.930Z,93.20
2019-03-25T20:38:49.259Z,92.50
2019-03-25T20:41:17.909Z,92.40
2019-03-25T20:43:46.934Z,92.10
2019-03-25T20:46:15.533Z,91.90
2019-03-25T20:48:44.086Z,92.00
2019-03-25T20:51:12.640Z,91.70
2019-03-25T20:53:41.300Z,91.40
2019-03-25T20:56:09.889Z,91.00
2019-03-25T20:58:38.479Z,91.00
2019-03-25T21:01:07.144Z,90.70
2019-03-25T21:03:35.776Z,90.40
2019-03-25T21:06:04.434Z,90.60
2019-03-25T21:08:33.002Z,90.40
2019-03-25T21:11:01.581Z,90.30
2019-03-25T21:13:30.201Z,90.70
2019-03-25T21:15:58.805Z,91.40
2019-03-25T21:18:27.435Z,91.30
2019-03-25T21:20:56.278Z,91.30
2019-03-25T21:23:24.807Z,91.30
2019-03-25T21:25:53.521Z,91.60
2019-03-25T21:28:22.325Z,91.70
2019-03-25T21:30:51.551Z,91.60
2019-03-25T21:33:20.165Z,91.50
2019-03-25T21:35:48.788Z,91.60
2019-03-25T21:38:17.354Z,91.80
2019-03-25T21:40:46.021Z,92.00
2019-03-25T21:43:14.696Z,92.00
2019-03-25T21:45:43.211Z,92.10
2019-03-25T21:48:11.830Z,91.80
2019-03-25T21:50:40.389Z,92.10
2019-03-25T21:53:08.978Z,92.00
2019-03-25T21:55:37.537Z,92.00
2019-03-25T21:58:06.181Z,92.10
2019-03-25T22:00:34.916Z,91.90
2019-03-25T22:03:11.371Z,92.30
2019-03-25T22:05:35.092Z,92.80
2019-03-25T22:08:03.781Z,92.70
2019-03-25T22:10:32.427Z,93.10
2019-03-25T22:13:01.020Z,93.20
2019-03-25T22:15:29.580Z,93.40
2019-03-25T22:17:58.170Z,93.40
2019-03-25T22:20:26.730Z,93.40
2019-03-25T22:22:55.295Z,93.60
2019-03-25T22:25:27.870Z,93.50
2019-03-25T22:28:00.544Z,93.60
2019-03-25T22:30:34.727Z,93.70
2019-03-25T22:33:02.994Z,93.70
2019-03-25T22:35:31.600Z,93.70
2019-03-25T22:38:00.156Z,93.70
2019-03-25T22:40:28.719Z,93.70
2019-03-25T22:42:57.307Z,93.60
2019-03-25T22:45:28.178Z,93.90
2019-03-25T22:47:56.731Z,93.60
2019-03-25T22:50:29.756Z,93.70
2019-03-25T22:52:58.306Z,93.70
2019-03-25T22:55:27.012Z,93.70
2019-03-25T22:57:55.558Z,93.80
2019-03-25T23:00:25.898Z,93.80
2019-03-25T23:02:54.561Z,93.60
2019-03-25T23:05:23.227Z,93.60
2019-03-25T23:07:51.780Z,93.50
2019-03-25T23:10:20.382Z,93.60
2019-03-25T23:12:48.947Z,93.30
2019-03-25T23:15:17.497Z,93.30
2019-03-25T23:17:46.131Z,93.40
2019-03-25T23:20:14.694Z,93.30
2019-03-25T23:22:43.279Z,93.40
2019-03-25T23:25:11.919Z,93.40
2019-03-25T23:27:40.489Z,93.50
2019-03-25T23:30:09.385Z,93.40
2019-03-25T23:32:38.019Z,93.40
2019-03-25T23:35:07.006Z,93.30
2019-03-25T23:37:35.562Z,93.50
2019-03-25T23:40:05.969Z,93.50
2019-03-25T23:42:34.598Z,93.50
2019-03-25T23:45:03.463Z,93.40
2019-03-25T23:47:32.174Z,93.40
2019-03-25T23:50:00.737Z,93.40
2019-03-25T23:52:29.322Z,93.40
2019-03-25T23:54:57.860Z,93.30
2019-03-25T23:57:26.403Z,93.20
2019-03-25T23:59:54.967Z,93.20
